createdAt,value
2017-05-01T00:01:36.669Z,12.78
2017-05-01T00:04:04.122Z,12.74
2017-05-01T00:06:31.546Z,12.71
2017-05-01T00:08:58.966Z,12.69
2017-05-01T00:11:26.409Z,12.67
2017-05-01T00:13:53.822Z,12.66
2017-05-01T00:16:21.283Z,12.64
2017-05-01T00:18:48.743Z,12.62
2017-05-01T00:21:16.164Z,12.60
2017-05-01T00:23:43.586Z,12.56
2017-05-01T00:26:11.033Z,12.54
2017-05-01T00:28:38.454Z,12.50
2017-05-01T00:31:05.886Z,12.46
2017-05-01T00:33:33.335Z,12.42
2017-05-01T00:36:00.771Z,12.40
2017-05-01T00:38:28.204Z,12.36
2017-05-01T00:40:55.653Z,12.33
2017-05-01T00:43:23.088Z,12.30
2017-05-01T00:45:50.538Z,12.27
2017-05-01T00:48:17.987Z,12.25
2017-05-01T00:50:45.409Z,12.22
2017-05-01T00:53:12.857Z,12.19
2017-05-01T00:55:40.302Z,12.18
2017-05-01T00:58:07.727Z,12.15
2017-05-01T01:00:35.154Z,12.14
2017-05-01T01:03:02.594Z,12.11
2017-05-01T01:05:30.037Z,12.08
2017-05-01T01:07:58.465Z,12.05
2017-05-01T01:10:31.451Z,12.00
2017-05-01T01:12:58.882Z,11.95
2017-05-01T01:15:26.312Z,11.91
2017-05-01T01:17:53.754Z,11.87
2017-05-01T01:20:21.190Z,11.82
2017-05-01T01:22:48.610Z,11.79
2017-05-01T01:25:16.049Z,11.76
2017-05-01T01:27:43.478Z,11.73
2017-05-01T01:30:10.916Z,11.72
2017-05-01T01:32:38.406Z,11.72
2017-05-01T01:35:05.850Z,11.71
2017-05-01T01:37:33.288Z,11.70
2017-05-01T01:40:00.741Z,11.69
2017-05-01T01:42:28.170Z,11.68
2017-05-01T01:44:55.590Z,11.66
2017-05-01T01:47:23.037Z,11.64
2017-05-01T01:49:50.469Z,11.62
2017-05-01T01:52:17.901Z,11.60
2017-05-01T01:54:45.350Z,11.59
2017-05-01T01:57:12.766Z,11.57
2017-05-01T01:59:40.192Z,11.57
2017-05-01T02:02:07.671Z,11.58
2017-05-01T02:04:35.094Z,11.58
2017-05-01T02:07:02.508Z,11.57
2017-05-01T02:09:29.945Z,11.57
2017-05-01T02:11:57.370Z,11.57
2017-05-01T02:14:24.800Z,11.58
2017-05-01T02:16:52.253Z,11.57
2017-05-01T02:19:19.666Z,11.56
2017-05-01T02:21:47.095Z,11.55
2017-05-01T02:24:14.542Z,11.53
2017-05-01T02:26:41.970Z,11.51
2017-05-01T02:29:09.386Z,11.49
2017-05-01T02:31:36.843Z,11.47
2017-05-01T02:34:04.290Z,11.46
2017-05-01T02:36:31.717Z,11.41
2017-05-01T02:38:59.174Z,11.37
2017-05-01T02:41:26.602Z,11.35
2017-05-01T02:43:54.031Z,11.32
2017-05-01T02:46:21.490Z,11.31
2017-05-01T02:48:48.914Z,11.29
2017-05-01T02:51:16.338Z,11.28
2017-05-01T02:53:43.786Z,11.26
2017-05-01T02:56:11.215Z,11.25
2017-05-01T02:58:38.651Z,11.25
2017-05-01T03:01:06.117Z,11.23
2017-05-01T03:03:33.543Z,11.22
2017-05-01T03:06:00.977Z,11.21
2017-05-01T03:08:28.434Z,11.19
2017-05-01T03:10:55.857Z,11.17
2017-05-01T03:13:23.288Z,11.14
2017-05-01T03:15:50.757Z,11.11
2017-05-01T03:18:18.183Z,11.06
2017-05-01T03:20:45.617Z,11.03
2017-05-01T03:23:13.081Z,10.99
2017-05-01T03:25:40.517Z,10.95
2017-05-01T03:28:07.944Z,10.91
2017-05-01T03:30:35.402Z,10.86
2017-05-01T03:33:02.835Z,10.82
2017-05-01T03:35:30.268Z,10.79
2017-05-01T03:37:57.735Z,10.75
2017-05-01T03:40:25.173Z,10.69
2017-05-01T03:42:52.606Z,10.65
2017-05-01T03:45:20.065Z,10.61
2017-05-01T03:47:47.492Z,10.57
2017-05-01T03:50:14.926Z,10.52
2017-05-01T03:52:42.385Z,10.48
2017-05-01T03:55:09.831Z,10.45
2017-05-01T03:57:37.269Z,10.41
2017-05-01T04:00:04.726Z,10.38
2017-05-01T04:02:32.177Z,10.34
2017-05-01T04:04:59.621Z,10.32
2017-05-01T04:07:27.085Z,10.30
2017-05-01T04:09:54.530Z,10.28
2017-05-01T04:12:21.953Z,10.27
2017-05-01T04:14:49.386Z,10.28
2017-05-01T04:17:16.817Z,10.27
2017-05-01T04:19:44.249Z,10.27
2017-05-01T04:22:11.705Z,10.28
2017-05-01T04:24:39.130Z,10.28
2017-05-01T04:27:06.558Z,10.28
2017-05-01T04:29:34.011Z,10.28
2017-05-01T04:32:01.445Z,10.28
2017-05-01T04:34:28.874Z,10.28
2017-05-01T04:36:56.309Z,10.27
2017-05-01T04:39:23.742Z,10.28
2017-05-01T04:41:51.189Z,10.28
2017-05-01T04:44:18.629Z,10.30
2017-05-01T04:46:46.061Z,10.32
2017-05-01T04:49:13.481Z,10.34
2017-05-01T04:51:40.917Z,10.37
2017-05-01T04:54:08.349Z,10.40
2017-05-01T04:56:35.802Z,10.42
2017-05-01T04:59:03.244Z,10.47
2017-05-01T05:01:30.665Z,10.50
2017-05-01T05:03:58.098Z,10.56
2017-05-01T05:06:26.482Z,10.63
2017-05-01T05:08:53.904Z,10.70
2017-05-01T05:11:21.321Z,10.77
2017-05-01T05:13:48.773Z,10.84
2017-05-01T05:16:16.200Z,10.92
2017-05-01T05:18:43.621Z,10.99
2017-05-01T05:21:11.073Z,11.07
2017-05-01T05:23:38.491Z,11.15
2017-05-01T05:26:05.913Z,11.22
2017-05-01T05:28:33.365Z,11.30
2017-05-01T05:31:00.785Z,11.35
2017-05-01T05:33:28.210Z,11.42
2017-05-01T05:35:55.654Z,11.48
2017-05-01T05:38:23.092Z,11.55
2017-05-01T05:40:50.508Z,11.61
2017-05-01T05:43:17.953Z,11.67
2017-05-01T05:45:45.381Z,11.72
2017-05-01T05:48:12.802Z,11.78
2017-05-01T05:50:40.249Z,11.84
2017-05-01T05:53:07.668Z,11.89
2017-05-01T05:55:35.090Z,11.95
2017-05-01T05:58:02.535Z,12.01
2017-05-01T06:00:29.992Z,12.06
2017-05-01T06:02:57.410Z,12.11
2017-05-01T06:05:24.876Z,12.15
2017-05-01T06:07:53.258Z,12.20
2017-05-01T06:10:20.700Z,12.25
2017-05-01T06:12:48.125Z,12.30
2017-05-01T06:15:15.559Z,12.34
2017-05-01T06:17:43.011Z,12.39
2017-05-01T06:20:10.433Z,12.42
2017-05-01T06:22:37.857Z,12.46
2017-05-01T06:25:05.277Z,12.50
2017-05-01T06:27:32.699Z,12.55
2017-05-01T06:30:00.133Z,12.59
2017-05-01T06:32:27.561Z,12.63
2017-05-01T06:34:55.079Z,12.68
2017-05-01T06:37:22.509Z,12.73
2017-05-01T06:39:49.943Z,12.75
2017-05-01T06:42:17.396Z,12.79
2017-05-01T06:44:44.821Z,12.82
2017-05-01T06:47:12.237Z,12.84
2017-05-01T06:49:39.669Z,12.86
2017-05-01T06:52:07.088Z,12.87
2017-05-01T06:54:34.575Z,12.88
2017-05-01T06:57:02.077Z,12.90
2017-05-01T06:59:29.497Z,12.92
2017-05-01T07:01:56.924Z,12.95
2017-05-01T07:04:24.355Z,12.98
2017-05-01T07:06:51.782Z,13.03
2017-05-01T07:09:26.470Z,13.07
2017-05-01T07:11:53.889Z,13.13
2017-05-01T07:14:21.350Z,13.18
2017-05-01T07:16:48.773Z,13.23
2017-05-01T07:19:16.191Z,13.27
2017-05-01T07:21:43.628Z,13.30
2017-05-01T07:24:11.045Z,13.33
2017-05-01T07:26:38.465Z,13.35
2017-05-01T07:29:05.910Z,13.36
2017-05-01T07:31:33.338Z,13.38
2017-05-01T07:34:00.778Z,13.39
2017-05-01T07:36:28.214Z,13.38
2017-05-01T07:38:55.650Z,13.39
2017-05-01T07:41:23.158Z,13.39
2017-05-01T07:43:50.576Z,13.39
2017-05-01T07:46:17.994Z,13.40
2017-05-01T07:48:45.442Z,13.39
2017-05-01T07:51:12.870Z,13.37
2017-05-01T07:53:40.309Z,13.37
2017-05-01T07:56:07.758Z,13.36
2017-05-01T07:58:35.174Z,13.36
2017-05-01T08:01:02.625Z,13.35
2017-05-01T08:03:30.074Z,13.35
2017-05-01T08:05:57.493Z,13.34
2017-05-01T08:08:25.719Z,13.34
2017-05-01T08:10:54.202Z,13.34
2017-05-01T08:13:21.642Z,13.33
2017-05-01T08:15:49.077Z,13.30
2017-05-01T08:18:17.040Z,13.28
2017-05-01T08:20:44.473Z,13.24
2017-05-01T08:23:11.935Z,13.17
2017-05-01T08:25:40.371Z,13.10
2017-05-01T08:28:07.846Z,13.02
2017-05-01T08:30:35.275Z,12.95
2017-05-01T08:33:02.738Z,12.88
2017-05-01T08:35:30.202Z,12.80
2017-05-01T08:37:59.591Z,12.72
2017-05-01T08:40:27.058Z,12.64
2017-05-01T08:42:56.472Z,12.57
2017-05-01T08:45:23.916Z,12.48
2017-05-01T08:47:52.130Z,12.42
2017-05-01T08:50:19.565Z,12.35
2017-05-01T08:52:47.058Z,12.28
2017-05-01T08:55:14.534Z,12.22
2017-05-01T08:57:41.999Z,12.14
2017-05-01T09:00:12.553Z,12.08
2017-05-01T09:02:39.991Z,12.01
2017-05-01T09:05:07.514Z,11.97
2017-05-01T09:07:34.990Z,11.94
2017-05-01T09:10:04.424Z,11.90
2017-05-01T09:12:31.891Z,11.88
2017-05-01T09:14:59.326Z,11.86
2017-05-01T09:17:26.759Z,11.84
2017-05-01T09:19:54.233Z,11.81
2017-05-01T09:22:21.678Z,11.81
2017-05-01T09:24:49.112Z,11.78
2017-05-01T09:27:16.542Z,11.77
2017-05-01T09:29:43.963Z,11.74
2017-05-01T09:32:11.390Z,11.73
2017-05-01T09:34:38.827Z,11.73
2017-05-01T09:37:06.252Z,11.72
2017-05-01T09:39:33.697Z,11.73
2017-05-01T09:42:01.126Z,11.73
2017-05-01T09:44:28.568Z,11.75
2017-05-01T09:46:55.997Z,11.76
2017-05-01T09:49:23.419Z,11.75
2017-05-01T09:51:50.854Z,11.74
2017-05-01T09:54:18.282Z,11.73
2017-05-01T09:56:45.710Z,11.74
2017-05-01T09:59:13.137Z,11.75
2017-05-01T10:01:40.564Z,11.77
2017-05-01T10:04:07.998Z,11.79
2017-05-01T10:06:46.068Z,11.80
2017-05-01T10:09:13.490Z,11.79
2017-05-01T10:11:40.954Z,11.77
2017-05-01T10:14:09.400Z,11.75
2017-05-01T10:16:36.846Z,11.73
2017-05-01T10:19:04.727Z,11.71
2017-05-01T10:21:32.195Z,11.72
2017-05-01T10:23:59.614Z,11.73
2017-05-01T10:26:27.041Z,11.75
2017-05-01T10:28:54.470Z,11.77
2017-05-01T10:31:21.909Z,11.78
2017-05-01T10:34:09.542Z,11.80
2017-05-01T10:36:36.982Z,11.81
2017-05-01T10:39:04.426Z,11.82
2017-05-01T10:41:31.853Z,11.83
2017-05-01T10:43:59.287Z,11.84
2017-05-01T10:46:26.724Z,11.83
2017-05-01T10:48:54.159Z,11.82
2017-05-01T10:51:21.590Z,11.83
2017-05-01T10:53:49.010Z,11.83
2017-05-01T10:56:16.437Z,11.84
2017-05-01T10:58:43.868Z,11.87
2017-05-01T11:01:11.293Z,11.92
2017-05-01T11:03:38.722Z,11.99
2017-05-01T11:06:06.155Z,12.07
2017-05-01T11:08:33.586Z,12.13
2017-05-01T11:11:01.021Z,12.20
2017-05-01T11:13:28.453Z,12.26
2017-05-01T11:15:55.882Z,12.32
2017-05-01T11:18:23.311Z,12.38
2017-05-01T11:20:50.734Z,12.41
2017-05-01T11:23:18.170Z,12.46
2017-05-01T11:25:45.601Z,12.47
2017-05-01T11:28:13.025Z,12.48
2017-05-01T11:30:40.457Z,12.51
2017-05-01T11:33:07.882Z,12.55
2017-05-01T11:35:35.327Z,12.57
2017-05-01T11:38:02.781Z,12.59
2017-05-01T11:40:30.236Z,12.62
2017-05-01T11:42:57.657Z,12.64
2017-05-01T11:45:25.078Z,12.67
2017-05-01T11:47:52.507Z,12.70
2017-05-01T11:50:19.933Z,12.72
2017-05-01T11:52:47.358Z,12.73
2017-05-01T11:55:14.785Z,12.77
2017-05-01T11:57:42.223Z,12.77
2017-05-01T12:00:09.650Z,12.79
2017-05-01T12:02:42.930Z,12.80
2017-05-01T12:05:10.354Z,12.81
2017-05-01T12:07:37.818Z,12.82
2017-05-01T12:10:05.330Z,12.80
2017-05-01T12:12:36.054Z,12.80
2017-05-01T12:15:03.573Z,12.79
2017-05-01T12:17:31.098Z,12.77
2017-05-01T12:19:58.586Z,12.75
2017-05-01T12:22:30.150Z,12.74
2017-05-01T12:24:58.502Z,12.76
2017-05-01T12:27:25.942Z,12.75
2017-05-01T12:29:53.387Z,12.75
2017-05-01T12:32:20.863Z,12.76
2017-05-01T12:34:48.302Z,12.76
2017-05-01T12:37:15.734Z,12.76
2017-05-01T12:39:43.186Z,12.76
2017-05-01T12:42:22.063Z,12.74
2017-05-01T12:44:49.494Z,12.70
2017-05-01T12:47:17.010Z,12.65
2017-05-01T12:49:44.460Z,12.61
2017-05-01T12:52:11.915Z,12.57
2017-05-01T12:54:48.694Z,12.52
2017-05-01T12:57:16.190Z,12.48
2017-05-01T12:59:43.987Z,12.45
2017-05-01T13:02:12.447Z,12.40
2017-05-01T13:04:43.127Z,12.37
2017-05-01T13:07:10.554Z,12.35
2017-05-01T13:09:37.995Z,12.36
2017-05-01T13:12:05.446Z,12.38
2017-05-01T13:14:33.878Z,12.38
2017-05-01T13:17:01.326Z,12.37
2017-05-01T13:19:28.768Z,12.38
2017-05-01T13:21:56.205Z,12.38
2017-05-01T13:24:23.640Z,12.40
2017-05-01T13:26:51.075Z,12.43
2017-05-01T13:29:18.506Z,12.48
2017-05-01T13:31:45.996Z,12.53
2017-05-01T13:34:13.455Z,12.56
2017-05-01T13:36:40.890Z,12.58
2017-05-01T13:39:11.918Z,12.59
2017-05-01T13:41:39.352Z,12.61
2017-05-01T13:44:06.779Z,12.62
2017-05-01T13:46:34.223Z,12.62
2017-05-01T13:49:01.654Z,12.62
2017-05-01T13:51:29.090Z,12.63
2017-05-01T13:53:56.526Z,12.63
2017-05-01T13:56:23.954Z,12.64
2017-05-01T13:58:52.298Z,12.65
2017-05-01T14:01:19.735Z,12.65
2017-05-01T14:03:48.140Z,12.65
2017-05-01T14:06:15.571Z,12.65
2017-05-01T14:08:43.002Z,12.64
2017-05-01T14:11:10.434Z,12.64
2017-05-01T14:13:37.882Z,12.64
2017-05-01T14:16:05.334Z,12.66
2017-05-01T14:18:32.766Z,12.67
2017-05-01T14:21:01.202Z,12.68
2017-05-01T14:23:28.652Z,12.68
2017-05-01T14:25:56.103Z,12.70
2017-05-01T14:28:23.562Z,12.69
2017-05-01T14:30:51.015Z,12.69
2017-05-01T14:33:18.470Z,12.69
2017-05-01T14:35:45.917Z,12.68
2017-05-01T14:38:13.375Z,12.69
2017-05-01T14:40:40.814Z,12.69
2017-05-01T14:43:08.237Z,12.69
2017-05-01T14:45:35.670Z,12.69
2017-05-01T14:48:03.102Z,12.67
2017-05-01T14:50:30.523Z,12.66
2017-05-01T14:52:57.946Z,12.64
2017-05-01T14:55:25.379Z,12.62
2017-05-01T14:57:53.970Z,12.62
2017-05-01T15:00:21.400Z,12.61
2017-05-01T15:02:48.843Z,12.59
2017-05-01T15:05:16.278Z,12.58
2017-05-01T15:13:40.322Z,12.54
2017-05-01T15:16:07.854Z,12.51
2017-05-01T15:18:35.412Z,12.47
2017-05-01T15:21:02.862Z,12.46
2017-05-01T15:23:30.299Z,12.44
2017-05-01T15:25:57.740Z,12.42
2017-05-01T15:28:25.187Z,12.42
2017-05-01T15:30:52.623Z,12.42
2017-05-01T15:33:21.521Z,12.40
2017-05-01T15:35:48.979Z,12.38
2017-05-01T15:38:16.520Z,12.34
2017-05-01T15:40:53.942Z,12.31
2017-05-01T15:43:21.382Z,12.27
2017-05-01T15:45:50.067Z,12.23
2017-05-01T15:48:17.502Z,12.21
2017-05-01T15:50:44.954Z,12.19
2017-05-01T15:53:20.274Z,12.17
2017-05-01T15:55:47.835Z,12.14
2017-05-01T15:58:15.266Z,12.13
2017-05-01T16:00:42.771Z,12.11
2017-05-01T16:03:10.234Z,12.13
2017-05-01T16:05:37.684Z,12.13
2017-05-01T16:08:05.151Z,12.13
2017-05-01T16:10:37.568Z,12.14
2017-05-01T16:13:05.014Z,12.15
2017-05-01T16:15:32.447Z,12.17
2017-05-01T16:18:00.978Z,12.18
2017-05-01T16:20:28.478Z,12.18
2017-05-01T16:22:55.916Z,12.18
2017-05-01T16:25:23.426Z,12.17
2017-05-01T16:27:51.067Z,12.16
2017-05-01T16:30:18.653Z,12.17
2017-05-01T16:32:46.474Z,12.18
2017-05-01T16:35:13.942Z,12.19
2017-05-01T16:37:41.376Z,12.19
2017-05-01T16:40:08.806Z,12.20
2017-05-01T16:42:37.183Z,12.18
2017-05-01T16:45:04.606Z,12.17
2017-05-01T16:47:32.034Z,12.17
2017-05-01T16:49:59.469Z,12.15
2017-05-01T16:52:26.898Z,12.14
2017-05-01T16:54:54.321Z,12.12
2017-05-01T16:57:21.742Z,12.12
2017-05-01T16:59:49.171Z,12.12
2017-05-01T17:02:16.600Z,12.13
2017-05-01T17:04:44.030Z,12.12
2017-05-01T17:07:16.476Z,12.11
2017-05-01T17:09:43.917Z,12.10
2017-05-01T17:12:11.342Z,12.09
2017-05-01T17:14:38.770Z,12.08
2017-05-01T17:17:06.199Z,12.06
2017-05-01T17:19:33.617Z,12.05
2017-05-01T17:22:01.049Z,12.04
2017-05-01T17:24:28.499Z,12.03
2017-05-01T17:26:55.945Z,12.02
2017-05-01T17:29:23.375Z,12.00
2017-05-01T17:31:50.807Z,11.99
2017-05-01T17:34:18.239Z,11.98
2017-05-01T17:36:45.687Z,11.96
2017-05-01T17:39:13.110Z,11.94
2017-05-01T17:41:40.541Z,11.91
2017-05-01T17:44:07.973Z,11.90
2017-05-01T17:46:35.406Z,11.88
2017-05-01T17:49:02.838Z,11.86
2017-05-01T17:51:30.306Z,11.84
2017-05-01T17:53:57.758Z,11.83
2017-05-01T17:56:25.193Z,11.81
2017-05-01T17:58:52.617Z,11.79
2017-05-01T18:01:20.101Z,11.77
2017-05-01T18:03:47.535Z,11.75
2017-05-01T18:06:14.965Z,11.73
2017-05-01T18:08:42.392Z,11.71
2017-05-01T18:11:09.824Z,11.69
2017-05-01T18:13:37.251Z,11.67
2017-05-01T18:16:04.678Z,11.64
2017-05-01T18:18:32.135Z,11.61
2017-05-01T18:20:59.571Z,11.58
2017-05-01T18:23:26.996Z,11.55
2017-05-01T18:25:54.446Z,11.53
2017-05-01T18:28:21.875Z,11.51
2017-05-01T18:30:49.313Z,11.48
2017-05-01T18:33:18.730Z,11.45
2017-05-01T18:35:46.161Z,11.43
2017-05-01T18:38:13.590Z,11.41
2017-05-01T18:40:41.038Z,11.39
2017-05-01T18:43:08.462Z,11.37
2017-05-01T18:45:35.884Z,11.35
2017-05-01T18:48:03.414Z,11.34
2017-05-01T18:50:30.849Z,11.31
2017-05-01T18:52:58.275Z,11.29
2017-05-01T18:55:25.726Z,11.28
2017-05-01T18:57:53.163Z,11.26
2017-05-01T19:00:20.595Z,11.24
2017-05-01T19:02:48.039Z,11.21
2017-05-01T19:05:15.506Z,11.19
2017-05-01T19:07:42.942Z,11.16
2017-05-01T19:10:10.408Z,11.14
2017-05-01T19:12:37.849Z,11.12
2017-05-01T19:15:05.348Z,11.11
2017-05-01T19:17:32.794Z,11.09
2017-05-01T19:20:00.221Z,11.07
2017-05-01T19:22:27.654Z,11.06
2017-05-01T19:24:55.102Z,11.05
2017-05-01T19:27:22.538Z,11.03
2017-05-01T19:29:49.957Z,11.01
2017-05-01T19:32:17.412Z,11.00
2017-05-01T19:34:44.830Z,10.99
2017-05-01T19:37:12.253Z,10.97
2017-05-01T19:39:39.707Z,10.96
2017-05-01T19:42:07.139Z,10.95
2017-05-01T19:44:34.558Z,10.93
2017-05-01T19:47:02.002Z,10.92
2017-05-01T19:49:29.425Z,10.90
2017-05-01T19:51:56.962Z,10.89
2017-05-01T19:54:24.412Z,10.89
2017-05-01T19:56:51.858Z,10.89
2017-05-01T19:59:19.297Z,10.88
2017-05-01T20:01:46.746Z,10.88
2017-05-01T20:04:14.182Z,10.88
2017-05-01T20:06:41.625Z,10.88
2017-05-01T20:09:09.074Z,10.88
2017-05-01T20:11:36.642Z,10.88
2017-05-01T20:14:04.084Z,10.88
2017-05-01T20:16:31.537Z,10.87
2017-05-01T20:18:58.981Z,10.88
2017-05-01T20:21:27.266Z,10.92
2017-05-01T20:23:54.774Z,10.98
2017-05-01T20:26:23.191Z,11.04
2017-05-01T20:28:50.635Z,11.09
2017-05-01T20:31:18.091Z,11.14
2017-05-01T20:33:45.523Z,11.19
2017-05-01T20:36:12.962Z,11.23
2017-05-01T20:38:40.410Z,11.27
2017-05-01T20:41:08.869Z,11.30
2017-05-01T20:43:36.307Z,11.32
2017-05-01T20:46:03.773Z,11.35
2017-05-01T20:48:31.226Z,11.36
2017-05-01T20:50:58.668Z,11.38
2017-05-01T20:53:26.131Z,11.39
2017-05-01T20:55:57.791Z,11.38
2017-05-01T20:58:25.249Z,11.39
2017-05-01T21:00:52.718Z,11.38
2017-05-01T21:03:20.153Z,11.38
2017-05-01T21:05:50.801Z,11.39
2017-05-01T21:08:18.261Z,11.38
2017-05-01T21:10:45.698Z,11.38
2017-05-01T21:13:13.131Z,11.38
2017-05-01T21:15:40.594Z,11.37
2017-05-01T21:18:08.035Z,11.36
2017-05-01T21:20:35.476Z,11.36
2017-05-01T21:23:02.935Z,11.35
2017-05-01T21:25:30.369Z,11.35
2017-05-01T21:27:57.809Z,11.33
2017-05-01T21:30:25.272Z,11.32
2017-05-01T21:32:52.710Z,11.31
2017-05-01T21:35:22.127Z,11.31
2017-05-01T21:37:49.597Z,11.29
2017-05-01T21:40:17.042Z,11.29
2017-05-01T21:42:44.486Z,11.28
2017-05-01T21:45:11.950Z,11.26
2017-05-01T21:47:39.390Z,11.26
2017-05-01T21:50:06.821Z,11.25
2017-05-01T21:52:34.298Z,11.24
2017-05-01T21:55:01.746Z,11.23
2017-05-01T21:57:36.815Z,11.22
2017-05-01T22:00:04.247Z,11.22
2017-05-01T22:02:31.683Z,11.20
2017-05-01T22:04:59.148Z,11.20
2017-05-01T22:07:26.585Z,11.19
2017-05-01T22:09:54.024Z,11.19
2017-05-01T22:12:21.493Z,11.18
2017-05-01T22:14:48.919Z,11.17
2017-05-01T22:17:16.358Z,11.17
2017-05-01T22:19:43.819Z,11.16
2017-05-01T22:22:11.254Z,11.14
2017-05-01T22:24:38.703Z,11.14
2017-05-01T22:27:06.167Z,11.14
2017-05-01T22:29:33.626Z,11.13
2017-05-01T22:32:01.053Z,11.12
2017-05-01T22:34:28.526Z,11.11
2017-05-01T22:36:55.958Z,11.11
2017-05-01T22:39:23.395Z,11.10
2017-05-01T22:41:50.882Z,11.09
2017-05-01T22:44:18.311Z,11.09
2017-05-01T22:46:45.750Z,11.08
2017-05-01T22:49:13.197Z,11.08
2017-05-01T22:51:40.630Z,11.09
2017-05-01T22:54:08.059Z,11.07
2017-05-01T22:56:35.522Z,11.07
2017-05-01T22:59:02.956Z,11.06
2017-05-01T23:01:30.393Z,11.06
2017-05-01T23:03:57.843Z,11.06
2017-05-01T23:06:25.279Z,11.05
2017-05-01T23:08:52.709Z,11.04
2017-05-01T23:11:20.165Z,11.04
2017-05-01T23:13:47.606Z,11.03
2017-05-01T23:16:15.042Z,11.03
2017-05-01T23:18:42.498Z,11.03
2017-05-01T23:21:09.929Z,11.02
2017-05-01T23:23:37.366Z,11.02
2017-05-01T23:26:04.834Z,11.02
2017-05-01T23:28:32.294Z,11.01
2017-05-01T23:30:59.737Z,11.02
2017-05-01T23:33:27.191Z,11.01
2017-05-01T23:35:54.626Z,11.01
2017-05-01T23:38:22.063Z,11.02
2017-05-01T23:40:49.534Z,11.02
2017-05-01T23:43:16.973Z,11.00
2017-05-01T23:45:44.411Z,11.01
2017-05-01T23:48:11.862Z,11.00
2017-05-01T23:50:39.303Z,10.99
2017-05-01T23:53:06.742Z,10.99
2017-05-01T23:55:34.197Z,10.99
2017-05-01T23:58:01.639Z,10.98
